sensor_id;sensor_type;location;lat;lon;timestamp;P1;durP1;ratioP1;P2;durP2;ratioP2
16820;SDS011;8527;49.740;6.604;2023-10-09T00:03:01;16.35;;;7.00;;
16820;SDS011;8527;49.740;6.604;2023-10-09T00:08:04;15.55;;;6.60;;
16820;SDS011;8527;49.740;6.604;2023-10-09T00:13:06;20.20;;;7.43;;
16820;SDS011;8527;49.740;6.604;2023-10-09T00:18:05;18.27;;;7.22;;
16820;SDS011;8527;49.740;6.604;2023-10-09T00:23:10;23.05;;;8.60;;
16820;SDS011;8527;49.740;6.604;2023-10-09T00:28:11;36.95;;;11.57;;
16820;SDS011;8527;49.740;6.604;2023-10-09T00:33:14;31.38;;;12.07;;
16820;SDS011;8527;49.740;6.604;2023-10-09T00:38:23;20.88;;;10.13;;
16820;SDS011;8527;49.740;6.604;2023-10-09T00:43:28;28.00;;;9.98;;
16820;SDS011;8527;49.740;6.604;2023-10-09T00:48:27;31.50;;;9.57;;
16820;SDS011;8527;49.740;6.604;2023-10-09T00:53:37;21.48;;;8.65;;
16820;SDS011;8527;49.740;6.604;2023-10-09T00:58:35;28.63;;;9.05;;
16820;SDS011;8527;49.740;6.604;2023-10-09T01:03:34;23.23;;;8.90;;
16820;SDS011;8527;49.740;6.604;2023-10-09T01:08:44;19.17;;;8.35;;
16820;SDS011;8527;49.740;6.604;2023-10-09T01:13:54;24.83;;;9.18;;
16820;SDS011;8527;49.740;6.604;2023-10-09T01:19:06;26.40;;;9.85;;
16820;SDS011;8527;49.740;6.604;2023-10-09T01:24:11;30.30;;;9.88;;
16820;SDS011;8527;49.740;6.604;2023-10-09T01:29:12;21.75;;;8.52;;
16820;SDS011;8527;49.740;6.604;2023-10-09T01:34:14;21.13;;;8.15;;
16820;SDS011;8527;49.740;6.604;2023-10-09T01:39:15;24.63;;;9.32;;
16820;SDS011;8527;49.740;6.604;2023-10-09T01:44:21;22.35;;;8.63;;
16820;SDS011;8527;49.740;6.604;2023-10-09T01:49:24;28.50;;;10.25;;
16820;SDS011;8527;49.740;6.604;2023-10-09T01:54:30;24.65;;;9.73;;
16820;SDS011;8527;49.740;6.604;2023-10-09T01:59:32;25.42;;;9.35;;
16820;SDS011;8527;49.740;6.604;2023-10-09T02:04:54;18.05;;;7.97;;
16820;SDS011;8527;49.740;6.604;2023-10-09T02:10:05;26.48;;;10.07;;
16820;SDS011;8527;49.740;6.604;2023-10-09T02:15:19;25.85;;;10.43;;
16820;SDS011;8527;49.740;6.604;2023-10-09T02:20:40;34.85;;;10.43;;
16820;SDS011;8527;49.740;6.604;2023-10-09T02:25:45;24.48;;;9.55;;
16820;SDS011;8527;49.740;6.604;2023-10-09T02:30:48;20.45;;;7.60;;
16820;SDS011;8527;49.740;6.604;2023-10-09T02:35:59;19.45;;;7.80;;
16820;SDS011;8527;49.740;6.604;2023-10-09T02:41:03;18.52;;;8.07;;
16820;SDS011;8527;49.740;6.604;2023-10-09T02:46:15;17.77;;;7.18;;
16820;SDS011;8527;49.740;6.604;2023-10-09T02:51:24;24.70;;;8.45;;
16820;SDS011;8527;49.740;6.604;2023-10-09T02:56:39;22.92;;;8.25;;
16820;SDS011;8527;49.740;6.604;2023-10-09T03:01:38;21.65;;;8.80;;
16820;SDS011;8527;49.740;6.604;2023-10-09T03:06:38;18.17;;;8.18;;
16820;SDS011;8527;49.740;6.604;2023-10-09T03:11:43;23.80;;;8.35;;
16820;SDS011;8527;49.740;6.604;2023-10-09T03:16:57;18.85;;;8.70;;
16820;SDS011;8527;49.740;6.604;2023-10-09T03:21:56;23.40;;;7.05;;
16820;SDS011;8527;49.740;6.604;2023-10-09T03:26:58;24.92;;;8.45;;
16820;SDS011;8527;49.740;6.604;2023-10-09T03:31:56;23.60;;;8.60;;
16820;SDS011;8527;49.740;6.604;2023-10-09T03:36:55;20.80;;;8.20;;
16820;SDS011;8527;49.740;6.604;2023-10-09T03:42:18;28.35;;;8.48;;
16820;SDS011;8527;49.740;6.604;2023-10-09T03:47:19;25.27;;;7.88;;
16820;SDS011;8527;49.740;6.604;2023-10-09T03:52:21;25.27;;;9.30;;
16820;SDS011;8527;49.740;6.604;2023-10-09T03:57:25;18.83;;;7.43;;
16820;SDS011;8527;49.740;6.604;2023-10-09T04:02:25;23.30;;;7.60;;
16820;SDS011;8527;49.740;6.604;2023-10-09T04:07:24;18.83;;;8.15;;
16820;SDS011;8527;49.740;6.604;2023-10-09T04:12:26;19.02;;;7.78;;
16820;SDS011;8527;49.740;6.604;2023-10-09T04:17:26;20.55;;;8.35;;
16820;SDS011;8527;49.740;6.604;2023-10-09T04:22:31;19.92;;;7.95;;
16820;SDS011;8527;49.740;6.604;2023-10-09T04:27:36;18.17;;;7.30;;
16820;SDS011;8527;49.740;6.604;2023-10-09T04:32:35;19.98;;;7.88;;
16820;SDS011;8527;49.740;6.604;2023-10-09T04:37:35;28.33;;;7.82;;
16820;SDS011;8527;49.740;6.604;2023-10-09T04:42:37;17.92;;;7.68;;
16820;SDS011;8527;49.740;6.604;2023-10-09T04:47:41;26.90;;;8.48;;
16820;SDS011;8527;49.740;6.604;2023-10-09T04:52:53;22.73;;;7.40;;
16820;SDS011;8527;49.740;6.604;2023-10-09T04:58:16;18.05;;;7.47;;
16820;SDS011;8527;49.740;6.604;2023-10-09T05:03:19;26.73;;;7.25;;
16820;SDS011;8527;49.740;6.604;2023-10-09T05:08:25;19.98;;;7.60;;
16820;SDS011;8527;49.740;6.604;2023-10-09T05:13:30;23.50;;;7.18;;
16820;SDS011;8527;49.740;6.604;2023-10-09T05:18:59;15.32;;;6.95;;
16820;SDS011;8527;49.740;6.604;2023-10-09T05:24:02;17.67;;;7.05;;
16820;SDS011;8527;49.740;6.604;2023-10-09T05:29:17;21.30;;;6.75;;
16820;SDS011;8527;49.740;6.604;2023-10-09T05:34:44;22.35;;;7.93;;
16820;SDS011;8527;49.740;6.604;2023-10-09T05:40:02;20.17;;;7.53;;
16820;SDS011;8527;49.740;6.604;2023-10-09T05:45:20;18.20;;;6.55;;
16820;SDS011;8527;49.740;6.604;2023-10-09T05:50:31;20.08;;;7.32;;
16820;SDS011;8527;49.740;6.604;2023-10-09T05:55:35;18.05;;;6.75;;
16820;SDS011;8527;49.740;6.604;2023-10-09T06:00:49;18.27;;;8.35;;
16820;SDS011;8527;49.740;6.604;2023-10-09T06:06:23;20.70;;;7.70;;
16820;SDS011;8527;49.740;6.604;2023-10-09T06:11:38;20.70;;;9.30;;
16820;SDS011;8527;49.740;6.604;2023-10-09T06:16:47;21.42;;;7.90;;
16820;SDS011;8527;49.740;6.604;2023-10-09T06:22:15;27.67;;;9.50;;
16820;SDS011;8527;49.740;6.604;2023-10-09T06:27:29;23.55;;;9.50;;
16820;SDS011;8527;49.740;6.604;2023-10-09T06:32:54;27.92;;;8.43;;
16820;SDS011;8527;49.740;6.604;2023-10-09T06:38:02;42.08;;;11.65;;
16820;SDS011;8527;49.740;6.604;2023-10-09T06:43:16;33.55;;;10.23;;
16820;SDS011;8527;49.740;6.604;2023-10-09T06:48:24;23.25;;;9.27;;
16820;SDS011;8527;49.740;6.604;2023-10-09T06:53:50;22.80;;;9.25;;
16820;SDS011;8527;49.740;6.604;2023-10-09T06:59:02;24.80;;;8.82;;
16820;SDS011;8527;49.740;6.604;2023-10-09T07:04:14;21.45;;;8.90;;
16820;SDS011;8527;49.740;6.604;2023-10-09T07:09:24;28.00;;;10.20;;
16820;SDS011;8527;49.740;6.604;2023-10-09T07:14:37;25.25;;;10.50;;
16820;SDS011;8527;49.740;6.604;2023-10-09T07:19:59;26.98;;;11.25;;
16820;SDS011;8527;49.740;6.604;2023-10-09T07:25:08;24.38;;;9.10;;
16820;SDS011;8527;49.740;6.604;2023-10-09T07:30:23;27.63;;;11.25;;
16820;SDS011;8527;49.740;6.604;2023-10-09T07:35:37;23.17;;;9.50;;
16820;SDS011;8527;49.740;6.604;2023-10-09T07:40:52;32.45;;;9.70;;
16820;SDS011;8527;49.740;6.604;2023-10-09T07:45:57;25.48;;;9.35;;
16820;SDS011;8527;49.740;6.604;2023-10-09T07:51:22;22.17;;;9.75;;
16820;SDS011;8527;49.740;6.604;2023-10-09T07:56:25;23.02;;;8.90;;
16820;SDS011;8527;49.740;6.604;2023-10-09T08:01:37;26.38;;;10.30;;
16820;SDS011;8527;49.740;6.604;2023-10-09T08:06:49;22.92;;;9.75;;
16820;SDS011;8527;49.740;6.604;2023-10-09T08:11:48;29.88;;;10.32;;
16820;SDS011;8527;49.740;6.604;2023-10-09T08:17:11;52.15;;;13.50;;
16820;SDS011;8527;49.740;6.604;2023-10-09T08:22:18;42.40;;;11.10;;
16820;SDS011;8527;49.740;6.604;2023-10-09T08:27:31;26.38;;;9.85;;
16820;SDS011;8527;49.740;6.604;2023-10-09T08:32:50;27.75;;;10.02;;
16820;SDS011;8527;49.740;6.604;2023-10-09T08:38:02;26.02;;;8.95;;
16820;SDS011;8527;49.740;6.604;2023-10-09T08:43:08;24.48;;;10.35;;
16820;SDS011;8527;49.740;6.604;2023-10-09T08:48:08;28.98;;;9.40;;
16820;SDS011;8527;49.740;6.604;2023-10-09T08:53:13;24.02;;;9.38;;
16820;SDS011;8527;49.740;6.604;2023-10-09T08:58:13;26.98;;;9.45;;
16820;SDS011;8527;49.740;6.604;2023-10-09T09:03:20;30.88;;;9.15;;
16820;SDS011;8527;49.740;6.604;2023-10-09T09:08:24;24.55;;;9.27;;
16820;SDS011;8527;49.740;6.604;2023-10-09T09:13:24;20.55;;;9.40;;
16820;SDS011;8527;49.740;6.604;2023-10-09T09:18:26;27.92;;;9.40;;
16820;SDS011;8527;49.740;6.604;2023-10-09T09:23:34;22.70;;;9.02;;
16820;SDS011;8527;49.740;6.604;2023-10-09T09:28:36;23.90;;;9.57;;
16820;SDS011;8527;49.740;6.604;2023-10-09T09:33:55;21.00;;;8.18;;
16820;SDS011;8527;49.740;6.604;2023-10-09T09:38:56;22.17;;;8.68;;
16820;SDS011;8527;49.740;6.604;2023-10-09T09:43:58;21.70;;;7.88;;
16820;SDS011;8527;49.740;6.604;2023-10-09T09:49:00;21.25;;;8.02;;
16820;SDS011;8527;49.740;6.604;2023-10-09T09:54:05;31.90;;;8.15;;
16820;SDS011;8527;49.740;6.604;2023-10-09T09:59:04;25.80;;;8.50;;
16820;SDS011;8527;49.740;6.604;2023-10-09T10:04:18;18.55;;;7.57;;
16820;SDS011;8527;49.740;6.604;2023-10-09T10:09:36;19.33;;;7.45;;
16820;SDS011;8527;49.740;6.604;2023-10-09T10:14:51;22.92;;;8.45;;
16820;SDS011;8527;49.740;6.604;2023-10-09T10:19:58;22.50;;;7.63;;
16820;SDS011;8527;49.740;6.604;2023-10-09T10:30:45;18.50;;;7.88;;
16820;SDS011;8527;49.740;6.604;2023-10-09T10:35:48;32.63;;;7.93;;
16820;SDS011;8527;49.740;6.604;2023-10-09T10:40:55;27.13;;;7.55;;
16820;SDS011;8527;49.740;6.604;2023-10-09T10:46:08;21.77;;;8.05;;
16820;SDS011;8527;49.740;6.604;2023-10-09T10:51:19;27.45;;;8.13;;
16820;SDS011;8527;49.740;6.604;2023-10-09T10:56:23;24.17;;;7.72;;
16820;SDS011;8527;49.740;6.604;2023-10-09T11:01:32;23.50;;;7.90;;
16820;SDS011;8527;49.740;6.604;2023-10-09T11:06:46;27.77;;;8.32;;
16820;SDS011;8527;49.740;6.604;2023-10-09T11:12:07;23.25;;;7.28;;
16820;SDS011;8527;49.740;6.604;2023-10-09T11:17:19;21.80;;;7.57;;
16820;SDS011;8527;49.740;6.604;2023-10-09T11:22:21;20.80;;;7.57;;
16820;SDS011;8527;49.740;6.604;2023-10-09T11:27:36;22.83;;;7.82;;
16820;SDS011;8527;49.740;6.604;2023-10-09T11:32:45;19.35;;;6.97;;
16820;SDS011;8527;49.740;6.604;2023-10-09T11:37:44;25.15;;;7.82;;
16820;SDS011;8527;49.740;6.604;2023-10-09T11:42:59;18.85;;;7.03;;
16820;SDS011;8527;49.740;6.604;2023-10-09T11:48:15;21.77;;;7.47;;
16820;SDS011;8527;49.740;6.604;2023-10-09T11:53:26;23.58;;;7.10;;
16820;SDS011;8527;49.740;6.604;2023-10-09T11:58:36;19.92;;;7.53;;
16820;SDS011;8527;49.740;6.604;2023-10-09T12:03:35;17.17;;;6.88;;
16820;SDS011;8527;49.740;6.604;2023-10-09T12:08:34;20.45;;;6.45;;
16820;SDS011;8527;49.740;6.604;2023-10-09T12:13:38;24.20;;;7.05;;
16820;SDS011;8527;49.740;6.604;2023-10-09T12:18:37;17.95;;;6.45;;
16820;SDS011;8527;49.740;6.604;2023-10-09T12:23:35;17.38;;;6.60;;
16820;SDS011;8527;49.740;6.604;2023-10-09T12:28:38;18.35;;;6.88;;
16820;SDS011;8527;49.740;6.604;2023-10-09T12:33:41;21.90;;;7.57;;
16820;SDS011;8527;49.740;6.604;2023-10-09T12:38:40;21.38;;;6.90;;
16820;SDS011;8527;49.740;6.604;2023-10-09T12:43:46;18.50;;;6.65;;
16820;SDS011;8527;49.740;6.604;2023-10-09T12:48:45;26.58;;;7.45;;
16820;SDS011;8527;49.740;6.604;2023-10-09T12:53:49;21.27;;;6.55;;
16820;SDS011;8527;49.740;6.604;2023-10-09T12:58:54;17.65;;;6.70;;
16820;SDS011;8527;49.740;6.604;2023-10-09T13:03:53;18.63;;;7.40;;
16820;SDS011;8527;49.740;6.604;2023-10-09T13:08:51;19.50;;;7.45;;
16820;SDS011;8527;49.740;6.604;2023-10-09T13:13:57;18.45;;;6.90;;
16820;SDS011;8527;49.740;6.604;2023-10-09T13:19:09;24.77;;;7.60;;
16820;SDS011;8527;49.740;6.604;2023-10-09T13:24:07;18.50;;;6.57;;
16820;SDS011;8527;49.740;6.604;2023-10-09T13:29:11;18.70;;;7.45;;
16820;SDS011;8527;49.740;6.604;2023-10-09T13:34:17;19.92;;;7.03;;
16820;SDS011;8527;49.740;6.604;2023-10-09T13:39:16;23.73;;;7.15;;
16820;SDS011;8527;49.740;6.604;2023-10-09T13:44:24;22.90;;;6.95;;
16820;SDS011;8527;49.740;6.604;2023-10-09T13:49:24;25.23;;;7.47;;
16820;SDS011;8527;49.740;6.604;2023-10-09T13:54:25;19.90;;;7.55;;
16820;SDS011;8527;49.740;6.604;2023-10-09T13:59:37;23.80;;;7.70;;
16820;SDS011;8527;49.740;6.604;2023-10-09T14:04:38;23.92;;;7.22;;
16820;SDS011;8527;49.740;6.604;2023-10-09T14:09:39;19.98;;;7.53;;
16820;SDS011;8527;49.740;6.604;2023-10-09T14:14:52;17.92;;;6.90;;
16820;SDS011;8527;49.740;6.604;2023-10-09T14:19:51;28.00;;;7.70;;
16820;SDS011;8527;49.740;6.604;2023-10-09T14:24:56;22.38;;;8.02;;
16820;SDS011;8527;49.740;6.604;2023-10-09T14:29:57;24.45;;;7.63;;
16820;SDS011;8527;49.740;6.604;2023-10-09T14:34:56;19.65;;;7.13;;
16820;SDS011;8527;49.740;6.604;2023-10-09T14:39:56;20.08;;;7.55;;
16820;SDS011;8527;49.740;6.604;2023-10-09T14:44:57;21.92;;;7.18;;
16820;SDS011;8527;49.740;6.604;2023-10-09T14:50:03;17.02;;;7.55;;
16820;SDS011;8527;49.740;6.604;2023-10-09T14:55:04;17.73;;;7.82;;
16820;SDS011;8527;49.740;6.604;2023-10-09T15:00:08;23.92;;;8.15;;
16820;SDS011;8527;49.740;6.604;2023-10-09T15:05:09;23.70;;;8.05;;
16820;SDS011;8527;49.740;6.604;2023-10-09T15:10:09;24.70;;;8.18;;
16820;SDS011;8527;49.740;6.604;2023-10-09T15:15:12;22.77;;;7.80;;
16820;SDS011;8527;49.740;6.604;2023-10-09T15:20:12;20.27;;;7.70;;
16820;SDS011;8527;49.740;6.604;2023-10-09T15:25:11;22.60;;;7.70;;
16820;SDS011;8527;49.740;6.604;2023-10-09T15:30:09;23.30;;;8.52;;
16820;SDS011;8527;49.740;6.604;2023-10-09T15:35:11;27.45;;;9.02;;
16820;SDS011;8527;49.740;6.604;2023-10-09T15:40:14;16.13;;;7.68;;
16820;SDS011;8527;49.740;6.604;2023-10-09T15:45:21;21.73;;;8.18;;
16820;SDS011;8527;49.740;6.604;2023-10-09T15:50:29;24.50;;;8.05;;
16820;SDS011;8527;49.740;6.604;2023-10-09T15:55:35;22.70;;;8.48;;
16820;SDS011;8527;49.740;6.604;2023-10-09T16:00:36;32.08;;;9.40;;
16820;SDS011;8527;49.740;6.604;2023-10-09T16:05:37;24.15;;;8.25;;
16820;SDS011;8527;49.740;6.604;2023-10-09T16:10:43;20.52;;;7.50;;
16820;SDS011;8527;49.740;6.604;2023-10-09T16:15:46;21.40;;;7.50;;
16820;SDS011;8527;49.740;6.604;2023-10-09T16:20:45;29.00;;;8.38;;
16820;SDS011;8527;49.740;6.604;2023-10-09T16:25:49;22.42;;;7.57;;
16820;SDS011;8527;49.740;6.604;2023-10-09T16:30:50;24.42;;;7.97;;
16820;SDS011;8527;49.740;6.604;2023-10-09T16:35:49;22.17;;;7.43;;
16820;SDS011;8527;49.740;6.604;2023-10-09T16:40:53;20.77;;;7.70;;
16820;SDS011;8527;49.740;6.604;2023-10-09T16:45:57;42.00;;;14.88;;
16820;SDS011;8527;49.740;6.604;2023-10-09T16:50:56;47.83;;;19.23;;
16820;SDS011;8527;49.740;6.604;2023-10-09T16:55:57;29.35;;;11.52;;
16820;SDS011;8527;49.740;6.604;2023-10-09T17:01:07;21.95;;;9.07;;
16820;SDS011;8527;49.740;6.604;2023-10-09T17:06:11;32.42;;;13.93;;
16820;SDS011;8527;49.740;6.604;2023-10-09T17:11:14;45.20;;;20.13;;
16820;SDS011;8527;49.740;6.604;2023-10-09T17:16:19;27.00;;;10.90;;
16820;SDS011;8527;49.740;6.604;2023-10-09T17:21:24;24.40;;;8.15;;
16820;SDS011;8527;49.740;6.604;2023-10-09T17:26:24;23.55;;;7.38;;
16820;SDS011;8527;49.740;6.604;2023-10-09T17:31:25;25.35;;;7.93;;
16820;SDS011;8527;49.740;6.604;2023-10-09T17:36:24;23.00;;;8.10;;
16820;SDS011;8527;49.740;6.604;2023-10-09T17:41:23;32.10;;;13.00;;
16820;SDS011;8527;49.740;6.604;2023-10-09T17:46:28;36.83;;;15.00;;
16820;SDS011;8527;49.740;6.604;2023-10-09T17:51:26;27.83;;;9.27;;
16820;SDS011;8527;49.740;6.604;2023-10-09T17:56:25;32.85;;;12.98;;
16820;SDS011;8527;49.740;6.604;2023-10-09T18:01:29;24.77;;;10.40;;
16820;SDS011;8527;49.740;6.604;2023-10-09T18:06:28;26.15;;;8.93;;
16820;SDS011;8527;49.740;6.604;2023-10-09T18:11:30;19.92;;;7.40;;
16820;SDS011;8527;49.740;6.604;2023-10-09T18:16:31;28.88;;;7.00;;
16820;SDS011;8527;49.740;6.604;2023-10-09T18:21:31;25.42;;;7.28;;
16820;SDS011;8527;49.740;6.604;2023-10-09T18:31:37;20.73;;;6.93;;
16820;SDS011;8527;49.740;6.604;2023-10-09T18:36:36;17.20;;;6.55;;
16820;SDS011;8527;49.740;6.604;2023-10-09T18:41:35;17.40;;;7.07;;
16820;SDS011;8527;49.740;6.604;2023-10-09T18:46:33;22.10;;;6.72;;
16820;SDS011;8527;49.740;6.604;2023-10-09T18:51:35;20.73;;;8.25;;
16820;SDS011;8527;49.740;6.604;2023-10-09T18:56:41;15.13;;;6.72;;
16820;SDS011;8527;49.740;6.604;2023-10-09T19:01:43;19.40;;;6.75;;
16820;SDS011;8527;49.740;6.604;2023-10-09T19:06:45;15.40;;;5.85;;
16820;SDS011;8527;49.740;6.604;2023-10-09T19:11:44;19.98;;;6.80;;
16820;SDS011;8527;49.740;6.604;2023-10-09T19:16:45;18.13;;;6.63;;
16820;SDS011;8527;49.740;6.604;2023-10-09T19:21:49;24.80;;;9.07;;
16820;SDS011;8527;49.740;6.604;2023-10-09T19:26:48;23.08;;;7.40;;
16820;SDS011;8527;49.740;6.604;2023-10-09T19:31:49;20.90;;;6.70;;
16820;SDS011;8527;49.740;6.604;2023-10-09T19:36:53;19.98;;;6.43;;
16820;SDS011;8527;49.740;6.604;2023-10-09T19:41:51;19.33;;;6.20;;
16820;SDS011;8527;49.740;6.604;2023-10-09T19:46:50;19.65;;;6.55;;
16820;SDS011;8527;49.740;6.604;2023-10-09T19:51:49;22.13;;;6.93;;
16820;SDS011;8527;49.740;6.604;2023-10-09T19:56:53;16.15;;;7.03;;
16820;SDS011;8527;49.740;6.604;2023-10-09T20:01:53;21.40;;;8.95;;
16820;SDS011;8527;49.740;6.604;2023-10-09T20:06:51;20.65;;;7.65;;
16820;SDS011;8527;49.740;6.604;2023-10-09T20:11:53;16.50;;;6.60;;
16820;SDS011;8527;49.740;6.604;2023-10-09T20:16:58;15.70;;;5.20;;
16820;SDS011;8527;49.740;6.604;2023-10-09T20:22:00;18.80;;;6.50;;
16820;SDS011;8527;49.740;6.604;2023-10-09T20:27:03;17.85;;;5.88;;
16820;SDS011;8527;49.740;6.604;2023-10-09T20:32:03;15.65;;;5.80;;
16820;SDS011;8527;49.740;6.604;2023-10-09T20:37:02;15.70;;;5.75;;
16820;SDS011;8527;49.740;6.604;2023-10-09T20:42:04;19.92;;;5.90;;
16820;SDS011;8527;49.740;6.604;2023-10-09T20:47:05;20.55;;;6.30;;
16820;SDS011;8527;49.740;6.604;2023-10-09T20:52:06;19.73;;;5.75;;
16820;SDS011;8527;49.740;6.604;2023-10-09T20:57:07;20.55;;;6.00;;
16820;SDS011;8527;49.740;6.604;2023-10-09T21:02:05;13.60;;;5.55;;
16820;SDS011;8527;49.740;6.604;2023-10-09T21:07:03;19.58;;;6.20;;
16820;SDS011;8527;49.740;6.604;2023-10-09T21:12:02;21.98;;;6.60;;
16820;SDS011;8527;49.740;6.604;2023-10-09T21:17:03;24.25;;;6.18;;
16820;SDS011;8527;49.740;6.604;2023-10-09T21:22:02;19.10;;;6.35;;
16820;SDS011;8527;49.740;6.604;2023-10-09T21:27:00;16.75;;;5.95;;
16820;SDS011;8527;49.740;6.604;2023-10-09T21:31:58;13.73;;;5.95;;
16820;SDS011;8527;49.740;6.604;2023-10-09T21:36:59;12.52;;;5.22;;
16820;SDS011;8527;49.740;6.604;2023-10-09T21:42:00;14.50;;;5.55;;
16820;SDS011;8527;49.740;6.604;2023-10-09T21:47:02;16.05;;;5.70;;
16820;SDS011;8527;49.740;6.604;2023-10-09T21:52:05;14.95;;;5.95;;
16820;SDS011;8527;49.740;6.604;2023-10-09T21:57:07;19.38;;;5.78;;
16820;SDS011;8527;49.740;6.604;2023-10-09T22:02:06;24.50;;;6.63;;
16820;SDS011;8527;49.740;6.604;2023-10-09T22:07:07;19.40;;;6.47;;
16820;SDS011;8527;49.740;6.604;2023-10-09T22:12:06;18.63;;;6.30;;
16820;SDS011;8527;49.740;6.604;2023-10-09T22:17:04;21.10;;;6.57;;
16820;SDS011;8527;49.740;6.604;2023-10-09T22:22:03;19.27;;;6.32;;
16820;SDS011;8527;49.740;6.604;2023-10-09T22:27:08;18.42;;;5.60;;
16820;SDS011;8527;49.740;6.604;2023-10-09T22:37:12;15.38;;;5.25;;
16820;SDS011;8527;49.740;6.604;2023-10-09T22:42:17;20.00;;;6.75;;
16820;SDS011;8527;49.740;6.604;2023-10-09T22:47:18;17.42;;;6.93;;
16820;SDS011;8527;49.740;6.604;2023-10-09T22:52:18;14.65;;;5.72;;
16820;SDS011;8527;49.740;6.604;2023-10-09T22:57:21;15.85;;;5.95;;
16820;SDS011;8527;49.740;6.604;2023-10-09T23:02:20;15.32;;;6.05;;
16820;SDS011;8527;49.740;6.604;2023-10-09T23:07:33;15.05;;;5.60;;
16820;SDS011;8527;49.740;6.604;2023-10-09T23:12:39;16.75;;;5.80;;
16820;SDS011;8527;49.740;6.604;2023-10-09T23:17:41;22.27;;;6.05;;
16820;SDS011;8527;49.740;6.604;2023-10-09T23:22:43;15.20;;;5.78;;
16820;SDS011;8527;49.740;6.604;2023-10-09T23:27:50;17.77;;;5.78;;
16820;SDS011;8527;49.740;6.604;2023-10-09T23:33:09;14.50;;;6.07;;
16820;SDS011;8527;49.740;6.604;2023-10-09T23:38:18;17.23;;;7.00;;
16820;SDS011;8527;49.740;6.604;2023-10-09T23:43:29;16.98;;;6.40;;
16820;SDS011;8527;49.740;6.604;2023-10-09T23:48:29;16.08;;;5.93;;
16820;SDS011;8527;49.740;6.604;2023-10-09T23:53:28;18.33;;;6.03;;
16820;SDS011;8527;49.740;6.604;2023-10-09T23:58:31;15.60;;;5.95;;
